createdAt,value
2018-12-22T00:00:34.581Z,15.53
2018-12-22T00:03:09.496Z,13.73
2018-12-22T00:05:49.763Z,12.37
2018-12-22T00:08:25.523Z,13.30
2018-12-22T00:10:59.412Z,13.33
2018-12-22T00:13:31.362Z,12.63
2018-12-22T00:16:08.305Z,12.47
2018-12-22T00:18:42.853Z,15.27
2018-12-22T00:21:17.123Z,13.57
2018-12-22T00:23:49.876Z,12.70
2018-12-22T00:26:21.976Z,12.00
2018-12-22T00:28:56.485Z,13.20
2018-12-22T00:31:30.423Z,12.23
2018-12-22T00:34:02.285Z,13.07
2018-12-22T00:36:34.445Z,12.37
2018-12-22T01:01:19.367Z,12.33
2018-12-22T01:03:53.591Z,13.93
2018-12-22T01:06:27.384Z,12.77
2018-12-22T01:08:59.008Z,12.80
2018-12-22T01:14:30.288Z,10.67
2018-12-22T01:17:04.351Z,11.83
2018-12-22T01:19:35.887Z,13.70
2018-12-22T01:22:12.652Z,14.17
2018-12-22T01:27:48.503Z,11.87
2018-12-22T01:30:20.120Z,12.50
2018-12-22T01:32:52.465Z,11.43
2018-12-22T01:38:24.630Z,15.05
2018-12-22T01:41:02.772Z,12.40
2018-12-22T01:43:34.307Z,12.90
2018-12-22T01:46:10.540Z,11.17
2018-12-22T01:48:41.883Z,10.40
2018-12-22T01:51:30.675Z,11.77
2018-12-22T01:57:04.366Z,11.90
2018-12-22T01:59:42.179Z,11.83
2018-12-22T02:02:16.434Z,11.60
2018-12-22T02:04:50.230Z,10.17
2018-12-22T02:07:24.271Z,11.03
2018-12-22T02:18:57.557Z,11.80
2018-12-22T02:21:32.159Z,10.13
2018-12-22T02:24:12.204Z,10.87
2018-12-22T02:26:50.496Z,11.00
2018-12-22T02:29:22.118Z,11.37
2018-12-22T02:31:54.325Z,10.87
2018-12-22T02:34:26.469Z,11.00
2018-12-22T02:36:59.052Z,10.77
2018-12-22T02:39:51.574Z,10.70
2018-12-22T02:42:23.462Z,10.07
2018-12-22T02:45:06.224Z,9.80
2018-12-22T02:47:38.242Z,10.63
2018-12-22T02:50:10.867Z,9.73
2018-12-22T02:52:44.816Z,9.20
2018-12-22T02:55:20.939Z,11.00
2018-12-22T02:57:52.448Z,11.33
2018-12-22T03:09:21.951Z,12.40
2018-12-22T03:14:56.082Z,12.43
2018-12-22T03:17:27.729Z,12.17
2018-12-22T03:19:59.782Z,13.70
2018-12-22T03:22:34.289Z,12.23
2018-12-22T03:27:58.026Z,12.43
2018-12-22T03:30:26.240Z,11.77
2018-12-22T03:32:54.528Z,12.93
2018-12-22T03:35:22.808Z,12.33
2018-12-22T03:37:51.130Z,12.07
2018-12-22T03:40:19.410Z,13.53
2018-12-22T03:42:47.613Z,11.10
2018-12-22T03:45:15.910Z,12.63
2018-12-22T03:47:44.096Z,13.00
2018-12-22T03:50:12.369Z,13.67
2018-12-22T03:52:40.645Z,11.20
2018-12-22T03:55:09.151Z,8.60
2018-12-22T03:57:37.431Z,8.93
2018-12-22T04:00:05.862Z,7.40
2018-12-22T04:02:34.114Z,8.07
2018-12-22T04:05:02.450Z,7.87
2018-12-22T04:07:30.732Z,8.20
2018-12-22T04:09:58.937Z,6.93
2018-12-22T04:12:27.176Z,8.53
2018-12-22T04:14:55.413Z,7.47
2018-12-22T04:17:23.670Z,9.93
2018-12-22T04:19:51.947Z,11.17
2018-12-22T04:22:20.135Z,11.47
2018-12-22T04:24:48.346Z,13.70
2018-12-22T04:27:16.569Z,14.90
2018-12-22T04:29:44.809Z,14.63
2018-12-22T04:32:13.098Z,11.57
2018-12-22T04:34:41.335Z,12.40
2018-12-22T04:37:09.524Z,11.47
2018-12-22T04:39:37.806Z,11.13
2018-12-22T04:42:06.032Z,10.83
2018-12-22T04:44:34.403Z,12.37
2018-12-22T04:47:02.602Z,10.53
2018-12-22T04:49:30.802Z,10.90
2018-12-22T04:51:59.000Z,9.50
2018-12-22T04:54:27.320Z,10.20
2018-12-22T04:56:55.550Z,8.60
2018-12-22T04:59:23.816Z,8.47
2018-12-22T05:01:52.069Z,7.57
2018-12-22T05:04:20.266Z,8.53
2018-12-22T05:06:48.456Z,7.10
2018-12-22T05:09:17.183Z,7.90
2018-12-22T05:11:45.379Z,6.73
2018-12-22T05:14:13.562Z,7.57
2018-12-22T05:16:42.759Z,8.73
2018-12-22T05:19:11.139Z,8.13
2018-12-22T05:21:39.437Z,10.10
2018-12-22T05:24:07.629Z,10.30
2018-12-22T05:26:35.821Z,8.83
2018-12-22T05:29:04.016Z,9.70
2018-12-22T05:31:32.305Z,9.93
2018-12-22T05:34:00.570Z,10.20
2018-12-22T05:36:28.852Z,11.57
2018-12-22T05:38:57.107Z,9.87
2018-12-22T05:41:25.396Z,10.30
2018-12-22T05:43:53.605Z,10.53
2018-12-22T05:46:21.776Z,10.00
2018-12-22T05:48:50.154Z,9.13
2018-12-22T05:51:18.358Z,7.90
2018-12-22T05:53:46.558Z,8.83
2018-12-22T05:56:14.775Z,10.23
2018-12-22T05:58:42.965Z,9.57
2018-12-22T06:01:11.161Z,9.20
2018-12-22T06:03:39.416Z,8.43
2018-12-22T06:06:07.678Z,9.50
2018-12-22T06:08:35.878Z,8.80
2018-12-22T06:11:04.181Z,10.17
2018-12-22T06:13:32.379Z,9.93
2018-12-22T06:16:00.590Z,9.53
2018-12-22T06:18:28.803Z,10.33
2018-12-22T06:20:57.031Z,9.67
2018-12-22T06:23:26.748Z,10.40
2018-12-22T06:25:55.203Z,8.13
2018-12-22T06:28:23.402Z,8.63
2018-12-22T06:30:51.619Z,8.67
2018-12-22T06:33:19.836Z,9.43
2018-12-22T06:35:48.107Z,7.80
2018-12-22T06:38:16.341Z,7.07
2018-12-22T06:40:44.640Z,7.07
2018-12-22T06:43:12.830Z,7.30
2018-12-22T06:45:41.210Z,5.97
2018-12-22T06:48:09.407Z,6.50
2018-12-22T06:50:37.722Z,6.80
2018-12-22T06:53:05.923Z,5.73
2018-12-22T06:55:34.226Z,5.30
2018-12-22T06:58:02.418Z,4.37
2018-12-22T07:00:30.622Z,3.63
2018-12-22T07:02:58.948Z,3.13
2018-12-22T07:05:27.196Z,3.20
2018-12-22T07:07:55.458Z,3.23
2018-12-22T07:10:25.548Z,3.63
2018-12-22T07:12:54.198Z,2.87
2018-12-22T07:15:22.376Z,3.77
2018-12-22T07:17:50.647Z,5.10
2018-12-22T07:20:18.936Z,4.70
2018-12-22T07:22:47.165Z,4.50
2018-12-22T07:25:15.355Z,4.70
2018-12-22T07:27:43.704Z,3.57
2018-12-22T07:30:11.905Z,3.43
2018-12-22T07:32:40.126Z,3.43
2018-12-22T07:35:08.445Z,4.53
2018-12-22T07:37:36.384Z,3.57
2018-12-22T07:40:04.942Z,4.63
2018-12-22T07:42:33.187Z,5.00
2018-12-22T07:45:01.456Z,4.33
2018-12-22T07:47:29.743Z,4.50
2018-12-22T07:49:57.931Z,5.00
2018-12-22T07:52:26.322Z,5.20
2018-12-22T07:54:56.015Z,5.97
2018-12-22T07:57:24.207Z,5.43
2018-12-22T07:59:52.410Z,5.30
2018-12-22T08:02:20.630Z,6.20
2018-12-22T08:04:48.797Z,5.80
2018-12-22T08:07:17.204Z,5.20
2018-12-22T08:09:45.407Z,4.60
2018-12-22T08:12:13.579Z,4.00
2018-12-22T08:14:42.382Z,3.93
2018-12-22T08:17:10.681Z,3.47
2018-12-22T08:19:38.862Z,3.40
2018-12-22T08:22:08.517Z,4.43
2018-12-22T08:24:36.892Z,3.40
2018-12-22T08:27:05.171Z,3.47
2018-12-22T08:29:33.359Z,3.40
2018-12-22T08:32:01.567Z,3.53
2018-12-22T08:34:30.933Z,3.67
2018-12-22T08:36:59.670Z,4.40
2018-12-22T08:39:27.916Z,3.90
2018-12-22T08:41:56.274Z,4.60
2018-12-22T08:44:24.527Z,4.10
2018-12-22T08:46:52.751Z,5.27
2018-12-22T08:49:21.019Z,5.60
2018-12-22T08:51:49.239Z,5.93
2018-12-22T08:54:17.713Z,6.00
2018-12-22T08:56:46.006Z,4.87
2018-12-22T08:59:14.206Z,4.53
2018-12-22T09:01:43.732Z,5.20
2018-12-22T09:04:12.528Z,4.40
2018-12-22T09:06:40.800Z,4.63
2018-12-22T09:09:09.256Z,4.73
2018-12-22T09:11:37.579Z,4.97
2018-12-22T09:14:24.299Z,4.70
2018-12-22T09:16:52.644Z,4.83
2018-12-22T09:19:48.303Z,4.53
2018-12-22T09:22:40.992Z,4.63
2018-12-22T09:25:11.179Z,5.27
2018-12-22T09:30:38.508Z,6.13
2018-12-22T09:33:11.124Z,6.20
2018-12-22T09:38:44.192Z,6.33
2018-12-22T09:44:25.900Z,5.30
2018-12-22T09:46:54.205Z,5.57
2018-12-22T09:49:22.400Z,6.27
2018-12-22T09:51:50.673Z,5.27
2018-12-22T09:54:18.871Z,5.43
2018-12-22T09:56:47.163Z,5.43
2018-12-22T09:59:15.539Z,6.00
2018-12-22T10:01:43.728Z,5.27
2018-12-22T10:04:11.922Z,5.13
2018-12-22T10:06:40.133Z,5.33
2018-12-22T10:09:08.527Z,4.80
2018-12-22T10:11:36.914Z,5.17
2018-12-22T10:14:05.199Z,5.90
2018-12-22T10:16:33.413Z,4.97
2018-12-22T10:19:01.747Z,5.40
2018-12-22T10:21:30.013Z,4.87
2018-12-22T10:23:58.306Z,5.83
2018-12-22T10:26:26.556Z,5.23
2018-12-22T10:28:54.815Z,4.67
2018-12-22T10:31:23.096Z,5.60
2018-12-22T10:33:51.436Z,6.67
2018-12-22T10:42:15.868Z,5.30
2018-12-22T10:44:44.167Z,5.97
2018-12-22T10:47:12.910Z,6.40
2018-12-22T10:52:41.952Z,5.70
2018-12-22T10:55:10.434Z,5.57
2018-12-22T10:57:39.190Z,5.70
2018-12-22T11:00:11.111Z,5.70
2018-12-22T11:02:39.299Z,6.13
2018-12-22T11:05:10.052Z,5.97
2018-12-22T11:07:40.327Z,6.67
2018-12-22T11:10:12.827Z,6.97
2018-12-22T11:12:53.182Z,6.37
2018-12-22T11:15:23.447Z,5.90
2018-12-22T11:17:54.377Z,6.07
2018-12-22T11:20:41.558Z,5.77
2018-12-22T11:23:20.097Z,5.23
2018-12-22T11:28:50.539Z,5.63
2018-12-22T11:31:18.932Z,5.30
2018-12-22T11:33:47.482Z,4.73
2018-12-22T11:36:15.950Z,4.80
2018-12-22T11:38:45.202Z,4.37
2018-12-22T11:41:13.488Z,3.47
2018-12-22T11:43:41.804Z,3.70
2018-12-22T11:46:32.584Z,3.50
2018-12-22T11:49:15.167Z,2.80
2018-12-22T11:51:43.805Z,3.73
2018-12-22T11:54:12.075Z,3.53
2018-12-22T11:59:34.091Z,3.10
2018-12-22T12:02:09.493Z,4.33
2018-12-22T12:04:32.671Z,3.53
2018-12-22T12:07:00.991Z,5.00
2018-12-22T12:09:29.332Z,5.20
2018-12-22T12:11:57.572Z,4.53
2018-12-22T12:14:25.939Z,4.73
2018-12-22T12:16:59.711Z,5.13
2018-12-22T12:19:30.219Z,4.13
2018-12-22T12:21:58.475Z,4.73
2018-12-22T12:24:27.164Z,4.30
2018-12-22T12:26:55.498Z,4.17
2018-12-22T12:29:23.723Z,3.67
2018-12-22T12:31:52.516Z,4.20
2018-12-22T12:34:20.883Z,4.50
2018-12-22T12:36:49.135Z,4.53
2018-12-22T12:39:17.532Z,3.67
2018-12-22T12:41:46.060Z,4.20
2018-12-22T12:44:14.443Z,3.43
2018-12-22T12:46:49.618Z,3.90
2018-12-22T12:49:18.755Z,3.53
2018-12-22T12:51:47.267Z,3.10
2018-12-22T12:54:15.899Z,2.50
2018-12-22T12:56:55.179Z,2.97
2018-12-22T12:59:24.097Z,2.93
2018-12-22T13:02:00.782Z,2.63
2018-12-22T13:04:22.625Z,2.60
2018-12-22T13:06:51.032Z,2.33
2018-12-22T13:09:19.346Z,2.67
2018-12-22T13:11:48.559Z,2.90
2018-12-22T13:14:19.775Z,2.40
2018-12-22T13:16:48.196Z,3.40
2018-12-22T13:19:16.424Z,3.00
2018-12-22T13:21:48.531Z,2.97
2018-12-22T13:24:18.528Z,3.00
2018-12-22T13:26:46.887Z,3.07
2018-12-22T13:29:15.175Z,3.40
2018-12-22T13:31:44.315Z,3.13
2018-12-22T13:34:12.673Z,3.10
2018-12-22T13:36:40.907Z,3.30
2018-12-22T13:39:15.824Z,3.30
2018-12-22T13:41:44.084Z,4.20
2018-12-22T13:44:12.738Z,3.60
2018-12-22T13:46:41.060Z,3.30
2018-12-22T13:49:10.513Z,3.70
2018-12-22T13:51:40.913Z,3.50
2018-12-22T13:54:09.260Z,4.33
2018-12-22T13:56:37.599Z,3.93
2018-12-22T13:59:06.025Z,2.20
2018-12-22T14:01:37.775Z,2.10
2018-12-22T14:04:06.400Z,2.47
2018-12-22T14:06:39.267Z,2.10
2018-12-22T14:09:08.318Z,1.97
2018-12-22T14:11:36.779Z,2.20
2018-12-22T14:14:05.829Z,2.17
2018-12-22T14:16:40.938Z,3.53
2018-12-22T14:19:09.573Z,3.83
2018-12-22T14:21:39.143Z,6.20
2018-12-22T14:24:30.899Z,7.40
2018-12-22T14:26:59.189Z,5.30
2018-12-22T14:29:27.461Z,5.77
2018-12-22T14:31:55.757Z,5.20
2018-12-22T14:34:52.888Z,6.83
2018-12-22T14:37:21.154Z,7.50
2018-12-22T14:39:49.432Z,7.33
2018-12-22T14:42:17.806Z,7.47
2018-12-22T14:44:46.608Z,6.97
2018-12-22T14:47:14.945Z,6.20
2018-12-22T14:49:43.279Z,5.67
2018-12-22T14:52:11.581Z,5.13
2018-12-22T14:54:39.933Z,5.67
2018-12-22T14:57:08.204Z,5.27
2018-12-22T14:59:37.281Z,5.67
2018-12-22T15:02:05.513Z,4.43
2018-12-22T15:04:33.971Z,5.27
2018-12-22T15:07:02.523Z,4.40
2018-12-22T15:09:30.857Z,4.00
2018-12-22T15:11:59.124Z,3.93
2018-12-22T15:14:27.488Z,4.27
2018-12-22T15:16:55.824Z,3.80
2018-12-22T15:19:24.129Z,4.23
2018-12-22T15:21:56.623Z,3.53
2018-12-22T15:24:24.923Z,3.10
2018-12-22T15:26:53.359Z,4.00
2018-12-22T15:32:14.549Z,4.40
2018-12-22T15:34:42.851Z,4.10
2018-12-22T15:37:11.380Z,4.33
2018-12-22T15:39:39.970Z,4.07
2018-12-22T15:42:08.222Z,4.27
2018-12-22T15:44:36.490Z,3.90
2018-12-22T15:47:04.979Z,3.70
2018-12-22T15:49:33.454Z,4.30
2018-12-22T15:52:01.841Z,4.57
2018-12-22T15:54:30.178Z,5.37
2018-12-22T15:56:58.511Z,4.97
2018-12-22T15:59:26.861Z,5.07
2018-12-22T16:01:55.251Z,4.70
2018-12-22T16:04:23.520Z,4.70
2018-12-22T16:06:51.901Z,4.30
2018-12-22T16:09:20.160Z,4.30
2018-12-22T16:11:48.437Z,4.30
2018-12-22T16:14:16.719Z,3.80
2018-12-22T16:16:45.142Z,3.80
2018-12-22T16:19:13.433Z,3.50
2018-12-22T16:21:41.747Z,2.70
2018-12-22T16:24:10.128Z,3.30
2018-12-22T16:26:38.442Z,3.33
2018-12-22T16:29:13.299Z,2.93
2018-12-22T16:31:41.620Z,3.30
2018-12-22T16:34:09.988Z,5.03
2018-12-22T16:36:38.303Z,4.23
2018-12-22T16:39:08.033Z,5.23
2018-12-22T16:41:36.379Z,5.40
2018-12-22T16:44:07.439Z,7.63
2018-12-22T16:46:35.729Z,7.80
2018-12-22T16:49:04.090Z,6.87
2018-12-22T16:51:42.219Z,4.47
2018-12-22T16:54:10.638Z,4.97
2018-12-22T16:56:38.957Z,4.80
2018-12-22T16:59:07.271Z,4.13
2018-12-22T17:01:48.762Z,4.03
2018-12-22T17:04:17.196Z,3.93
2018-12-22T17:18:29.515Z,5.43
2018-12-22T17:21:03.469Z,5.27
2018-12-22T17:23:41.909Z,5.90
2018-12-22T17:26:16.333Z,5.60
2018-12-22T17:28:44.679Z,10.27
2018-12-22T17:31:13.036Z,9.93
2018-12-22T17:36:37.924Z,9.93
2018-12-22T17:39:13.133Z,8.47
2018-12-22T17:41:42.455Z,9.27
2018-12-22T17:44:10.781Z,8.83
2018-12-22T17:46:39.124Z,7.70
2018-12-22T17:49:07.508Z,9.27
2018-12-22T17:51:35.855Z,8.93
2018-12-22T17:54:04.219Z,8.63
2018-12-22T17:56:32.775Z,8.63
2018-12-22T17:59:01.628Z,7.33
2018-12-22T18:01:29.972Z,7.73
2018-12-22T18:03:58.245Z,6.93
2018-12-22T18:06:26.478Z,7.87
2018-12-22T18:08:54.964Z,9.53
2018-12-22T18:11:23.256Z,9.07
2018-12-22T18:13:51.698Z,7.80
2018-12-22T18:16:20.087Z,6.90
2018-12-22T18:18:48.504Z,7.37
2018-12-22T18:21:16.840Z,6.50
2018-12-22T18:23:45.174Z,6.70
2018-12-22T18:26:14.153Z,9.07
2018-12-22T18:28:42.444Z,8.60
2018-12-22T18:31:10.884Z,5.70
2018-12-22T18:33:39.207Z,7.40
2018-12-22T18:36:07.871Z,5.83
2018-12-22T18:38:36.240Z,6.03
2018-12-22T18:41:05.719Z,5.27
2018-12-22T18:43:33.982Z,5.40
2018-12-22T18:46:02.276Z,6.37
2018-12-22T18:48:30.592Z,7.00
2018-12-22T18:50:58.901Z,7.40
2018-12-22T18:56:15.624Z,8.03
2018-12-22T18:58:43.944Z,7.70
2018-12-22T19:07:22.897Z,10.50
2018-12-22T19:09:51.457Z,11.20
2018-12-22T19:12:20.719Z,11.37
2018-12-22T19:14:54.359Z,12.03
2018-12-22T19:17:24.610Z,12.83
2018-12-22T19:19:59.079Z,13.47
2018-12-22T19:22:33.156Z,13.90
2018-12-22T19:25:05.820Z,14.07
2018-12-22T19:33:53.423Z,12.57
2018-12-22T19:36:27.340Z,7.13
2018-12-22T19:39:09.215Z,5.60
2018-12-22T19:47:56.629Z,3.77
2018-12-22T19:50:24.900Z,6.30
2018-12-22T19:52:53.089Z,6.70
2018-12-22T19:55:21.496Z,7.13
2018-12-22T19:57:49.746Z,7.57
2018-12-22T20:00:18.904Z,7.60
2018-12-22T20:02:47.219Z,8.10
2018-12-22T20:05:16.001Z,8.00
2018-12-22T20:07:44.507Z,9.23
2018-12-22T20:10:13.555Z,8.67
2018-12-22T20:12:41.919Z,9.50
2018-12-22T20:15:18.215Z,10.83
2018-12-22T20:20:43.985Z,13.57
2018-12-22T20:23:12.346Z,14.80
2018-12-22T20:25:42.635Z,14.60
2018-12-22T20:28:11.151Z,13.30
2018-12-22T20:30:39.611Z,12.90
2018-12-22T20:33:08.079Z,11.97
2018-12-22T20:35:36.335Z,11.27
2018-12-22T20:38:04.683Z,11.40
2018-12-22T20:40:32.979Z,11.10
2018-12-22T20:43:01.295Z,11.07
2018-12-22T20:45:29.601Z,10.13
2018-12-22T20:47:57.931Z,11.93
2018-12-22T20:50:26.419Z,11.67
2018-12-22T20:52:59.339Z,10.07
2018-12-22T20:55:27.768Z,11.33
2018-12-22T20:57:56.037Z,10.43
2018-12-22T21:00:24.311Z,11.43
2018-12-22T21:02:52.632Z,11.60
2018-12-22T21:05:22.040Z,11.40
2018-12-22T21:07:50.292Z,11.50
2018-12-22T21:10:18.655Z,10.60
2018-12-22T21:12:46.913Z,11.17
2018-12-22T21:15:15.404Z,12.30
2018-12-22T21:17:43.724Z,13.27
2018-12-22T21:20:11.994Z,14.27
2018-12-22T21:22:41.178Z,13.23
2018-12-22T21:25:09.865Z,12.37
2018-12-22T21:27:40.152Z,12.07
2018-12-22T21:30:09.401Z,9.83
2018-12-22T21:32:41.520Z,10.23
2018-12-22T21:35:28.384Z,9.23
2018-12-22T21:37:59.992Z,9.23
2018-12-22T21:43:29.899Z,8.40
2018-12-22T21:46:10.932Z,7.60
2018-12-22T21:48:47.227Z,7.93
2018-12-22T21:51:21.095Z,7.77
2018-12-22T21:53:49.459Z,8.50
2018-12-22T21:59:26.925Z,7.93
2018-12-22T22:04:54.232Z,6.97
2018-12-22T22:07:26.047Z,7.47
2018-12-22T22:09:58.071Z,6.60
2018-12-22T22:12:29.889Z,5.67
2018-12-22T22:17:51.424Z,5.93
2018-12-22T22:20:36.458Z,6.37
2018-12-22T22:26:09.721Z,5.20
2018-12-22T22:31:34.166Z,3.67
2018-12-22T22:34:05.861Z,4.10
2018-12-22T22:36:46.469Z,4.53
2018-12-22T22:39:14.795Z,3.97
2018-12-22T22:41:55.788Z,4.00
2018-12-22T22:44:27.815Z,4.33
2018-12-22T22:49:52.059Z,4.63
2018-12-22T22:52:24.077Z,4.10
2018-12-22T22:54:52.343Z,3.83
2018-12-22T22:57:26.072Z,3.90
2018-12-22T22:59:57.445Z,3.57
2018-12-22T23:02:44.284Z,4.43
2018-12-22T23:05:12.682Z,4.27
2018-12-22T23:14:00.241Z,5.73
2018-12-22T23:16:28.527Z,7.07
2018-12-22T23:21:49.518Z,10.23
2018-12-22T23:24:36.027Z,11.73
2018-12-22T23:32:59.972Z,13.57
2018-12-22T23:35:42.302Z,13.97
2018-12-22T23:38:10.588Z,14.60
2018-12-22T23:40:38.906Z,15.23
2018-12-22T23:43:07.151Z,15.37
2018-12-22T23:45:45.324Z,16.17
2018-12-22T23:51:16.301Z,15.50
2018-12-22T23:53:44.612Z,15.30
2018-12-22T23:56:35.154Z,15.63
2018-12-22T23:59:19.399Z,14.60
